sensor_id;sensor_type;location;lat;lon;timestamp;pressure;altitude;pressure_sealevel;temperature;humidity
60228;BME280;46091;46.512;6.626;2022-09-09T03:50:38;96744.41;;;20.52;67.02
60228;BME280;46091;46.512;6.626;2022-09-09T03:52:41;96746.75;;;20.81;66.70
60228;BME280;46091;46.512;6.626;2022-09-09T03:54:44;96742.31;;;21.02;66.37
60228;BME280;46091;46.512;6.626;2022-09-09T03:56:46;96737.56;;;21.19;65.59
60228;BME280;46091;46.512;6.626;2022-09-09T03:58:49;96739.00;;;21.32;65.65
60228;BME280;46091;46.512;6.626;2022-09-09T04:00:54;96739.84;;;21.42;65.45
60228;BME280;46091;46.512;6.626;2022-09-09T04:02:57;96730.44;;;21.50;65.03
60228;BME280;46091;46.512;6.626;2022-09-09T04:04:59;96730.19;;;21.57;65.08
60228;BME280;46091;46.512;6.626;2022-09-09T04:07:03;96730.78;;;21.64;64.85
60228;BME280;46091;46.512;6.626;2022-09-09T04:09:08;96732.38;;;21.70;64.72
60228;BME280;46091;46.512;6.626;2022-09-09T04:11:10;96730.78;;;21.74;64.22
60228;BME280;46091;46.512;6.626;2022-09-09T04:13:13;96731.34;;;21.76;64.36
60228;BME280;46091;46.512;6.626;2022-09-09T04:15:17;96725.41;;;21.79;64.26
60228;BME280;46091;46.512;6.626;2022-09-09T04:17:20;96719.50;;;21.82;64.33
60228;BME280;46091;46.512;6.626;2022-09-09T04:19:23;96724.91;;;21.87;63.98
60228;BME280;46091;46.512;6.626;2022-09-09T04:21:26;96725.97;;;21.86;64.20
60228;BME280;46091;46.512;6.626;2022-09-09T04:23:30;96722.75;;;21.89;63.72
60228;BME280;46091;46.512;6.626;2022-09-09T04:25:33;96725.16;;;21.91;64.01
60228;BME280;46091;46.512;6.626;2022-09-09T04:27:35;96717.09;;;21.91;63.74
60228;BME280;46091;46.512;6.626;2022-09-09T04:29:38;96728.13;;;21.94;63.67
60228;BME280;46091;46.512;6.626;2022-09-09T04:31:41;96724.34;;;21.95;63.80
60228;BME280;46091;46.512;6.626;2022-09-09T04:33:44;96719.78;;;21.96;63.27
60228;BME280;46091;46.512;6.626;2022-09-09T04:35:48;96719.78;;;21.96;63.61
60228;BME280;46091;46.512;6.626;2022-09-09T04:37:52;96725.16;;;21.96;63.56
60228;BME280;46091;46.512;6.626;2022-09-09T04:39:56;96720.59;;;21.96;63.28
60228;BME280;46091;46.512;6.626;2022-09-09T04:41:58;96723.84;;;21.98;63.34
60228;BME280;46091;46.512;6.626;2022-09-09T04:44:01;96726.25;;;22.00;63.10
60228;BME280;46091;46.512;6.626;2022-09-09T04:46:04;96721.69;;;22.00;63.20
60228;BME280;46091;46.512;6.626;2022-09-09T04:48:08;96721.16;;;22.03;62.90
60228;BME280;46091;46.512;6.626;2022-09-09T04:50:12;96712.25;;;22.03;63.17
60228;BME280;46091;46.512;6.626;2022-09-09T04:52:14;96711.72;;;22.01;62.84
60228;BME280;46091;46.512;6.626;2022-09-09T04:54:18;96723.31;;;22.01;62.81
60228;BME280;46091;46.512;6.626;2022-09-09T04:56:22;96715.50;;;22.00;62.60
60228;BME280;46091;46.512;6.626;2022-09-09T04:58:27;96716.56;;;21.99;62.99
60228;BME280;46091;46.512;6.626;2022-09-09T05:00:30;96715.78;;;21.98;62.39
60228;BME280;46091;46.512;6.626;2022-09-09T05:02:33;96718.97;;;21.95;62.50
60228;BME280;46091;46.512;6.626;2022-09-09T05:04:39;96722.75;;;21.94;62.87
60228;BME280;46091;46.512;6.626;2022-09-09T05:06:42;96730.00;;;21.89;62.70
60228;BME280;46091;46.512;6.626;2022-09-09T05:08:45;96732.41;;;21.85;62.72
60228;BME280;46091;46.512;6.626;2022-09-09T05:10:47;96736.75;;;21.86;62.37
60228;BME280;46091;46.512;6.626;2022-09-09T05:12:54;96730.53;;;21.86;62.71
60228;BME280;46091;46.512;6.626;2022-09-09T05:14:57;96731.91;;;21.88;62.33
60228;BME280;46091;46.512;6.626;2022-09-09T05:17:00;96734.03;;;21.91;62.10
60228;BME280;46091;46.512;6.626;2022-09-09T05:19:02;96732.97;;;21.92;62.21
60228;BME280;46091;46.512;6.626;2022-09-09T05:21:06;96736.75;;;21.91;62.39
60228;BME280;46091;46.512;6.626;2022-09-09T05:23:09;96734.03;;;21.91;62.38
60228;BME280;46091;46.512;6.626;2022-09-09T05:25:12;96734.03;;;21.91;62.10
60228;BME280;46091;46.512;6.626;2022-09-09T05:27:16;96739.97;;;21.93;62.10
60228;BME280;46091;46.512;6.626;2022-09-09T05:29:20;96741.03;;;21.92;62.21
60228;BME280;46091;46.512;6.626;2022-09-09T05:31:23;96736.22;;;21.89;62.12
60228;BME280;46091;46.512;6.626;2022-09-09T05:33:30;96744.28;;;21.89;62.34
60228;BME280;46091;46.512;6.626;2022-09-09T05:35:33;96737.78;;;21.85;61.98
60228;BME280;46091;46.512;6.626;2022-09-09T05:37:35;96739.97;;;21.88;62.13
60228;BME280;46091;46.512;6.626;2022-09-09T05:39:39;96736.22;;;21.89;61.81
60228;BME280;46091;46.512;6.626;2022-09-09T05:41:42;96740.47;;;21.85;61.96
60228;BME280;46091;46.512;6.626;2022-09-09T05:43:46;96738.88;;;21.84;62.10
60228;BME280;46091;46.512;6.626;2022-09-09T05:46:00;96736.75;;;21.86;62.03
60228;BME280;46091;46.512;6.626;2022-09-09T05:48:04;96743.75;;;21.87;61.96
60228;BME280;46091;46.512;6.626;2022-09-09T05:50:07;96746.97;;;21.89;61.54
60228;BME280;46091;46.512;6.626;2022-09-09T05:52:10;96748.84;;;21.89;61.65
60228;BME280;46091;46.512;6.626;2022-09-09T05:54:13;96747.50;;;21.86;61.69
60228;BME280;46091;46.512;6.626;2022-09-09T05:56:20;96742.66;;;21.88;61.70
60228;BME280;46091;46.512;6.626;2022-09-09T05:58:25;96742.94;;;21.87;61.63
60228;BME280;46091;46.512;6.626;2022-09-09T06:00:28;96743.97;;;21.86;61.50
60228;BME280;46091;46.512;6.626;2022-09-09T06:02:34;96748.59;;;21.90;61.45
60228;BME280;46091;46.512;6.626;2022-09-09T06:04:39;96754.22;;;21.94;61.66
60228;BME280;46091;46.512;6.626;2022-09-09T06:06:42;96748.03;;;21.93;61.60
60228;BME280;46091;46.512;6.626;2022-09-09T06:08:45;96755.03;;;21.94;61.86
60228;BME280;46091;46.512;6.626;2022-09-09T06:10:47;96749.94;;;21.98;61.47
60228;BME280;46091;46.512;6.626;2022-09-09T06:12:52;96757.22;;;22.02;61.78
60228;BME280;46091;46.512;6.626;2022-09-09T06:14:55;96759.13;;;22.07;61.90
60228;BME280;46091;46.512;6.626;2022-09-09T06:16:58;96760.22;;;22.11;61.64
60228;BME280;46091;46.512;6.626;2022-09-09T06:19:02;96762.66;;;22.13;61.57
60228;BME280;46091;46.512;6.626;2022-09-09T06:21:07;96759.94;;;22.07;61.38
60228;BME280;46091;46.512;6.626;2022-09-09T06:23:10;96763.44;;;22.08;61.55
60228;BME280;46091;46.512;6.626;2022-09-09T06:25:13;96769.09;;;22.06;61.42
60228;BME280;46091;46.512;6.626;2022-09-09T06:27:16;96766.63;;;22.05;61.31
60228;BME280;46091;46.512;6.626;2022-09-09T06:29:19;96771.22;;;22.04;61.17
60228;BME280;46091;46.512;6.626;2022-09-09T06:31:23;96774.44;;;22.01;61.37
60228;BME280;46091;46.512;6.626;2022-09-09T06:33:31;96768.78;;;22.03;61.45
60228;BME280;46091;46.512;6.626;2022-09-09T06:35:37;96770.13;;;22.05;61.10
60228;BME280;46091;46.512;6.626;2022-09-09T06:37:44;96776.59;;;22.04;60.92
60228;BME280;46091;46.512;6.626;2022-09-09T06:39:47;96775.25;;;22.02;61.20
60228;BME280;46091;46.512;6.626;2022-09-09T06:41:50;96774.97;;;22.03;61.17
60228;BME280;46091;46.512;6.626;2022-09-09T06:43:54;96771.50;;;21.98;60.83
60228;BME280;46091;46.512;6.626;2022-09-09T06:45:59;96776.06;;;21.97;60.84
60228;BME280;46091;46.512;6.626;2022-09-09T06:48:03;96768.50;;;21.94;61.13
60228;BME280;46091;46.512;6.626;2022-09-09T06:50:06;96777.91;;;21.97;61.01
60228;BME280;46091;46.512;6.626;2022-09-09T06:52:11;96770.69;;;21.97;61.02
60228;BME280;46091;46.512;6.626;2022-09-09T06:54:14;96771.22;;;21.99;60.85
60228;BME280;46091;46.512;6.626;2022-09-09T06:56:20;96773.09;;;21.99;60.84
60228;BME280;46091;46.512;6.626;2022-09-09T06:58:24;96776.06;;;22.02;60.97
60228;BME280;46091;46.512;6.626;2022-09-09T07:00:27;96780.09;;;22.05;60.92
60228;BME280;46091;46.512;6.626;2022-09-09T07:02:31;96773.97;;;22.10;61.01
60228;BME280;46091;46.512;6.626;2022-09-09T07:04:40;96782.03;;;22.15;60.69
60228;BME280;46091;46.512;6.626;2022-09-09T07:06:44;96776.63;;;22.20;60.71
60228;BME280;46091;46.512;6.626;2022-09-09T07:08:53;96786.38;;;22.21;61.03
60228;BME280;46091;46.512;6.626;2022-09-09T07:11:01;96786.34;;;22.26;60.43
60228;BME280;46091;46.512;6.626;2022-09-09T07:13:13;96780.69;;;22.27;60.68
60228;BME280;46091;46.512;6.626;2022-09-09T07:15:17;96783.13;;;22.29;60.65
60228;BME280;46091;46.512;6.626;2022-09-09T07:17:20;96783.13;;;22.29;60.68
60228;BME280;46091;46.512;6.626;2022-09-09T07:19:23;96788.22;;;22.30;60.69
60228;BME280;46091;46.512;6.626;2022-09-09T07:21:27;96781.81;;;22.31;60.35
60228;BME280;46091;46.512;6.626;2022-09-09T07:23:30;96784.47;;;22.26;60.53
60228;BME280;46091;46.512;6.626;2022-09-09T07:25:44;96782.59;;;22.27;60.25
60228;BME280;46091;46.512;6.626;2022-09-09T07:27:47;96789.59;;;22.28;60.51
60228;BME280;46091;46.512;6.626;2022-09-09T07:29:50;96778.53;;;22.29;60.26
60228;BME280;46091;46.512;6.626;2022-09-09T07:31:55;96784.22;;;22.33;60.06
60228;BME280;46091;46.512;6.626;2022-09-09T07:33:58;96785.28;;;22.37;60.04
60228;BME280;46091;46.512;6.626;2022-09-09T07:36:03;96787.72;;;22.38;59.95
60228;BME280;46091;46.512;6.626;2022-09-09T07:38:07;96792.28;;;22.38;60.08
60228;BME280;46091;46.512;6.626;2022-09-09T07:40:11;96789.63;;;22.43;59.85
60228;BME280;46091;46.512;6.626;2022-09-09T07:42:15;96789.06;;;22.46;59.92
60228;BME280;46091;46.512;6.626;2022-09-09T07:44:19;96792.84;;;22.45;60.32
60228;BME280;46091;46.512;6.626;2022-09-09T07:46:25;96795.78;;;22.38;59.75
60228;BME280;46091;46.512;6.626;2022-09-09T07:48:29;96790.41;;;22.33;59.59
60228;BME280;46091;46.512;6.626;2022-09-09T07:50:31;96786.88;;;22.28;59.65
60228;BME280;46091;46.512;6.626;2022-09-09T07:52:34;96793.63;;;22.25;59.72
60228;BME280;46091;46.512;6.626;2022-09-09T07:54:37;96799.53;;;22.27;59.30
60228;BME280;46091;46.512;6.626;2022-09-09T07:56:40;96796.84;;;22.27;59.00
60228;BME280;46091;46.512;6.626;2022-09-09T07:58:46;96805.22;;;22.26;58.88
60228;BME280;46091;46.512;6.626;2022-09-09T08:00:49;96808.97;;;22.25;59.10
60228;BME280;46091;46.512;6.626;2022-09-09T08:02:52;96811.66;;;22.25;58.65
60228;BME280;46091;46.512;6.626;2022-09-09T08:04:55;96812.22;;;22.27;59.00
60228;BME280;46091;46.512;6.626;2022-09-09T08:07:00;96814.91;;;22.27;58.84
60228;BME280;46091;46.512;6.626;2022-09-09T08:09:04;96815.16;;;22.25;58.73
60228;BME280;46091;46.512;6.626;2022-09-09T08:11:09;96814.34;;;22.30;58.46
60228;BME280;46091;46.512;6.626;2022-09-09T08:13:13;96814.34;;;22.30;58.33
60228;BME280;46091;46.512;6.626;2022-09-09T08:15:20;96827.31;;;22.33;58.50
60228;BME280;46091;46.512;6.626;2022-09-09T08:17:23;96822.19;;;22.36;58.36
60228;BME280;46091;46.512;6.626;2022-09-09T08:19:26;96826.22;;;22.39;58.23
60228;BME280;46091;46.512;6.626;2022-09-09T08:21:31;96829.75;;;22.45;57.99
60228;BME280;46091;46.512;6.626;2022-09-09T08:23:35;96825.97;;;22.51;57.83
60228;BME280;46091;46.512;6.626;2022-09-09T08:25:37;96827.59;;;22.52;57.82
60228;BME280;46091;46.512;6.626;2022-09-09T08:27:40;96827.84;;;22.50;57.94
60228;BME280;46091;46.512;6.626;2022-09-09T08:29:43;96834.84;;;22.51;57.52
60228;BME280;46091;46.512;6.626;2022-09-09T08:31:49;96824.88;;;22.52;57.41
60228;BME280;46091;46.512;6.626;2022-09-09T08:33:52;96835.66;;;22.52;57.31
60228;BME280;46091;46.512;6.626;2022-09-09T08:35:55;96826.78;;;22.51;57.58
60228;BME280;46091;46.512;6.626;2022-09-09T08:37:57;96832.16;;;22.51;57.44
60228;BME280;46091;46.512;6.626;2022-09-09T08:40:00;96827.59;;;22.52;56.85
60228;BME280;46091;46.512;6.626;2022-09-09T08:42:23;96835.94;;;22.50;57.24
60228;BME280;46091;46.512;6.626;2022-09-09T08:44:38;96831.88;;;22.53;56.84
60228;BME280;46091;46.512;6.626;2022-09-09T08:46:57;96845.13;;;22.54;56.50
60228;BME280;46091;46.512;6.626;2022-09-09T08:49:06;96837.56;;;22.56;56.42
60228;BME280;46091;46.512;6.626;2022-09-09T08:51:16;96840.81;;;22.58;56.38
60228;BME280;46091;46.512;6.626;2022-09-09T08:53:21;96839.72;;;22.59;56.71
60228;BME280;46091;46.512;6.626;2022-09-09T08:55:32;96836.47;;;22.62;56.00
60228;BME280;46091;46.512;6.626;2022-09-09T08:57:38;96839.19;;;22.67;55.96
60228;BME280;46091;46.512;6.626;2022-09-09T08:59:41;96847.81;;;22.70;55.88
60228;BME280;46091;46.512;6.626;2022-09-09T09:01:53;96841.34;;;22.71;56.37
60228;BME280;46091;46.512;6.626;2022-09-09T09:04:03;96849.97;;;22.73;55.99
60228;BME280;46091;46.512;6.626;2022-09-09T09:06:23;96851.03;;;22.72;55.65
60228;BME280;46091;46.512;6.626;2022-09-09T09:08:36;96854.81;;;22.71;56.00
60228;BME280;46091;46.512;6.626;2022-09-09T09:10:46;96859.66;;;22.74;55.73
60228;BME280;46091;46.512;6.626;2022-09-09T09:12:50;96853.75;;;22.77;55.50
60228;BME280;46091;46.512;6.626;2022-09-09T09:14:53;96845.91;;;22.75;55.79
60228;BME280;46091;46.512;6.626;2022-09-09T09:17:00;96844.84;;;22.76;55.49
60228;BME280;46091;46.512;6.626;2022-09-09T09:19:05;96842.97;;;22.77;55.20
60228;BME280;46091;46.512;6.626;2022-09-09T09:21:16;96842.69;;;22.78;55.14
60228;BME280;46091;46.512;6.626;2022-09-09T09:23:24;96836.50;;;22.78;54.99
60228;BME280;46091;46.512;6.626;2022-09-09T09:25:32;96843.50;;;22.79;55.24
60228;BME280;46091;46.512;6.626;2022-09-09T09:27:40;96838.38;;;22.82;55.23
60228;BME280;46091;46.512;6.626;2022-09-09T09:29:48;96841.88;;;22.83;54.97
60228;BME280;46091;46.512;6.626;2022-09-09T09:32:18;96844.06;;;22.86;54.41
60228;BME280;46091;46.512;6.626;2022-09-09T09:34:24;96840.56;;;22.90;54.59
60228;BME280;46091;46.512;6.626;2022-09-09T09:36:34;96841.91;;;22.93;54.36
60228;BME280;46091;46.512;6.626;2022-09-09T09:38:37;96845.13;;;22.95;54.33
60228;BME280;46091;46.512;6.626;2022-09-09T09:41:01;96837.59;;;22.97;54.08
60228;BME280;46091;46.512;6.626;2022-09-09T09:43:04;96842.69;;;22.99;54.09
60228;BME280;46091;46.512;6.626;2022-09-09T09:45:16;96837.31;;;22.99;54.09
60228;BME280;46091;46.512;6.626;2022-09-09T09:47:24;96840.56;;;23.01;54.09
60228;BME280;46091;46.512;6.626;2022-09-09T09:49:28;96849.47;;;23.01;54.26
60228;BME280;46091;46.512;6.626;2022-09-09T09:51:32;96842.47;;;23.00;53.66
60228;BME280;46091;46.512;6.626;2022-09-09T09:53:38;96839.75;;;23.00;53.61
60228;BME280;46091;46.512;6.626;2022-09-09T09:55:50;96838.16;;;22.99;53.85
60228;BME280;46091;46.512;6.626;2022-09-09T09:58:01;96841.38;;;23.01;53.77
60228;BME280;46091;46.512;6.626;2022-09-09T10:00:14;96847.28;;;23.03;53.43
60228;BME280;46091;46.512;6.626;2022-09-09T10:02:21;96837.31;;;23.04;53.25
60228;BME280;46091;46.512;6.626;2022-09-09T10:04:27;96846.22;;;23.04;53.19
60228;BME280;46091;46.512;6.626;2022-09-09T10:06:31;96841.34;;;23.06;53.33
60228;BME280;46091;46.512;6.626;2022-09-09T10:08:44;96843.50;;;23.09;53.07
60228;BME280;46091;46.512;6.626;2022-09-09T10:11:00;96847.28;;;23.08;52.86
60228;BME280;46091;46.512;6.626;2022-09-09T10:13:09;96844.59;;;23.08;53.08
60228;BME280;46091;46.512;6.626;2022-09-09T10:15:33;96848.38;;;23.07;52.29
60228;BME280;46091;46.512;6.626;2022-09-09T10:17:47;96847.00;;;23.10;52.39
60228;BME280;46091;46.512;6.626;2022-09-09T10:20:06;96849.44;;;23.11;52.51
60228;BME280;46091;46.512;6.626;2022-09-09T10:22:25;96847.28;;;23.08;51.87
60228;BME280;46091;46.512;6.626;2022-09-09T10:24:40;96841.88;;;23.08;51.83
60228;BME280;46091;46.512;6.626;2022-09-09T10:26:48;96842.41;;;23.10;51.53
60228;BME280;46091;46.512;6.626;2022-09-09T10:29:07;96845.13;;;23.10;51.76
60228;BME280;46091;46.512;6.626;2022-09-09T10:31:19;96835.97;;;23.11;51.59
60228;BME280;46091;46.512;6.626;2022-09-09T10:33:31;96836.78;;;23.12;51.04
60228;BME280;46091;46.512;6.626;2022-09-09T10:35:43;96839.72;;;23.15;51.38
60228;BME280;46091;46.512;6.626;2022-09-09T10:40:23;96832.19;;;23.12;50.98
60228;BME280;46091;46.512;6.626;2022-09-09T10:42:31;96837.03;;;23.15;50.49
60228;BME280;46091;46.512;6.626;2022-09-09T10:44:47;96837.56;;;23.17;50.88
60228;BME280;46091;46.512;6.626;2022-09-09T10:47:14;96832.69;;;23.19;50.60
60228;BME280;46091;46.512;6.626;2022-09-09T10:49:33;96833.22;;;23.21;50.41
60228;BME280;46091;46.512;6.626;2022-09-09T10:51:52;96823.28;;;23.22;49.90
60228;BME280;46091;46.512;6.626;2022-09-09T10:54:19;96829.19;;;23.24;50.06
60228;BME280;46091;46.512;6.626;2022-09-09T10:56:28;96833.50;;;23.25;49.96
60228;BME280;46091;46.512;6.626;2022-09-09T10:58:37;96830.53;;;23.27;49.80
60228;BME280;46091;46.512;6.626;2022-09-09T11:00:46;96825.16;;;23.27;50.04
60228;BME280;46091;46.512;6.626;2022-09-09T11:02:56;96832.69;;;23.30;49.86
60228;BME280;46091;46.512;6.626;2022-09-09T11:05:02;96833.78;;;23.34;49.82
60228;BME280;46091;46.512;6.626;2022-09-09T11:07:11;96825.13;;;23.37;49.90
60228;BME280;46091;46.512;6.626;2022-09-09T11:09:18;96833.75;;;23.39;49.49
60228;BME280;46091;46.512;6.626;2022-09-09T11:11:29;96831.31;;;23.37;49.49
60228;BME280;46091;46.512;6.626;2022-09-09T11:13:37;96835.91;;;23.37;49.60
60228;BME280;46091;46.512;6.626;2022-09-09T11:15:44;96837.53;;;23.38;49.01
60228;BME280;46091;46.512;6.626;2022-09-09T11:17:50;96835.09;;;23.41;48.89
60228;BME280;46091;46.512;6.626;2022-09-09T11:19:53;96825.91;;;23.42;48.68
60228;BME280;46091;46.512;6.626;2022-09-09T11:21:58;96828.59;;;23.42;49.13
60228;BME280;46091;46.512;6.626;2022-09-09T11:24:06;96833.19;;;23.47;48.87
60228;BME280;46091;46.512;6.626;2022-09-09T11:26:15;96816.72;;;23.48;49.06
60228;BME280;46091;46.512;6.626;2022-09-09T11:28:41;96820.75;;;23.51;48.42
60228;BME280;46091;46.512;6.626;2022-09-09T11:31:00;96819.66;;;23.52;48.26
60228;BME280;46091;46.512;6.626;2022-09-09T11:33:31;96813.47;;;23.51;48.27
60228;BME280;46091;46.512;6.626;2022-09-09T11:35:50;96813.19;;;23.53;48.48
60228;BME280;46091;46.512;6.626;2022-09-09T11:38:19;96824.50;;;23.55;48.17
60228;BME280;46091;46.512;6.626;2022-09-09T11:40:26;96825.31;;;23.56;48.17
60228;BME280;46091;46.512;6.626;2022-09-09T11:42:29;96827.22;;;23.55;47.58
60228;BME280;46091;46.512;6.626;2022-09-09T11:44:32;96822.63;;;23.56;47.95
60228;BME280;46091;46.512;6.626;2022-09-09T11:46:37;96829.66;;;23.57;47.29
60228;BME280;46091;46.512;6.626;2022-09-09T11:48:42;96831.84;;;23.60;47.28
60228;BME280;46091;46.512;6.626;2022-09-09T11:50:57;96829.13;;;23.60;46.83
60228;BME280;46091;46.512;6.626;2022-09-09T11:53:19;96827.50;;;23.64;47.33
60228;BME280;46091;46.512;6.626;2022-09-09T11:55:28;96836.66;;;23.68;46.95
60228;BME280;46091;46.512;6.626;2022-09-09T11:57:36;96832.59;;;23.70;46.75
60228;BME280;46091;46.512;6.626;2022-09-09T11:59:39;96840.13;;;23.73;46.69
60228;BME280;46091;46.512;6.626;2022-09-09T12:01:55;96846.88;;;23.76;46.77
60228;BME280;46091;46.512;6.626;2022-09-09T12:04:15;96838.25;;;23.79;46.76
60228;BME280;46091;46.512;6.626;2022-09-09T12:06:27;96839.31;;;23.83;46.56
60228;BME280;46091;46.512;6.626;2022-09-09T12:08:34;96828.50;;;23.83;46.12
60228;BME280;46091;46.512;6.626;2022-09-09T12:10:40;96828.22;;;23.85;45.98
60228;BME280;46091;46.512;6.626;2022-09-09T12:12:42;96823.34;;;23.87;46.41
60228;BME280;46091;46.512;6.626;2022-09-09T12:14:55;96838.19;;;23.89;46.44
60228;BME280;46091;46.512;6.626;2022-09-09T12:17:09;96839.53;;;23.92;46.17
60228;BME280;46091;46.512;6.626;2022-09-09T12:19:15;96831.69;;;23.95;46.13
60228;BME280;46091;46.512;6.626;2022-09-09T12:21:32;96829.22;;;23.99;45.95
60228;BME280;46091;46.512;6.626;2022-09-09T12:23:42;96819.78;;;24.01;45.71
60228;BME280;46091;46.512;6.626;2022-09-09T12:25:58;96832.72;;;24.04;45.60
60228;BME280;46091;46.512;6.626;2022-09-09T12:28:05;96834.63;;;24.04;45.55
60228;BME280;46091;46.512;6.626;2022-09-09T12:30:14;96833.53;;;24.05;45.54
60228;BME280;46091;46.512;6.626;2022-09-09T12:32:22;96828.13;;;24.05;45.44
60228;BME280;46091;46.512;6.626;2022-09-09T12:34:33;96832.16;;;24.07;45.22
60228;BME280;46091;46.512;6.626;2022-09-09T12:36:39;96824.56;;;24.15;45.08
60228;BME280;46091;46.512;6.626;2022-09-09T12:38:43;96830.22;;;24.18;45.13
60228;BME280;46091;46.512;6.626;2022-09-09T12:40:55;96829.34;;;24.23;44.85
60228;BME280;46091;46.512;6.626;2022-09-09T12:42:59;96834.50;;;24.24;45.07
60228;BME280;46091;46.512;6.626;2022-09-09T12:45:15;96830.16;;;24.23;44.78
60228;BME280;46091;46.512;6.626;2022-09-09T12:47:21;96828.03;;;24.20;44.88
60228;BME280;46091;46.512;6.626;2022-09-09T12:49:32;96824.53;;;24.20;44.72
60228;BME280;46091;46.512;6.626;2022-09-09T12:51:37;96823.19;;;24.17;44.55
60228;BME280;46091;46.512;6.626;2022-09-09T12:53:40;96825.91;;;24.17;44.69
60228;BME280;46091;46.512;6.626;2022-09-09T12:55:50;96824.00;;;24.18;44.40
60228;BME280;46091;46.512;6.626;2022-09-09T12:57:55;96821.81;;;24.20;44.50
60228;BME280;46091;46.512;6.626;2022-09-09T13:00:06;96815.63;;;24.19;44.73
60228;BME280;46091;46.512;6.626;2022-09-09T13:02:17;96809.41;;;24.19;44.63
60228;BME280;46091;46.512;6.626;2022-09-09T13:04:21;96810.22;;;24.19;44.32
60228;BME280;46091;46.512;6.626;2022-09-09T13:06:25;96813.72;;;24.20;44.11
60228;BME280;46091;46.512;6.626;2022-09-09T13:08:30;96814.00;;;24.18;43.91
60228;BME280;46091;46.512;6.626;2022-09-09T13:10:34;96811.06;;;24.15;43.98
60228;BME280;46091;46.512;6.626;2022-09-09T13:12:56;96815.09;;;24.12;44.09
60228;BME280;46091;46.512;6.626;2022-09-09T13:15:02;96809.16;;;24.15;44.35
60228;BME280;46091;46.512;6.626;2022-09-09T13:17:06;96810.22;;;24.19;44.28
60228;BME280;46091;46.512;6.626;2022-09-09T13:19:18;96809.09;;;24.25;44.07
60228;BME280;46091;46.512;6.626;2022-09-09T13:21:31;96800.44;;;24.28;44.07
60228;BME280;46091;46.512;6.626;2022-09-09T13:23:37;96805.31;;;24.31;43.50
60228;BME280;46091;46.512;6.626;2022-09-09T13:25:40;96800.69;;;24.32;43.91
60228;BME280;46091;46.512;6.626;2022-09-09T13:27:53;96801.50;;;24.32;43.38
60228;BME280;46091;46.512;6.626;2022-09-09T13:29:57;96798.28;;;24.35;43.41
60228;BME280;46091;46.512;6.626;2022-09-09T13:32:04;96796.09;;;24.37;43.61
60228;BME280;46091;46.512;6.626;2022-09-09T13:34:13;96790.91;;;24.41;43.47
60228;BME280;46091;46.512;6.626;2022-09-09T13:36:27;96791.44;;;24.43;43.53
60228;BME280;46091;46.512;6.626;2022-09-09T13:38:33;96782.00;;;24.41;43.06
60228;BME280;46091;46.512;6.626;2022-09-09T13:40:38;96780.09;;;24.41;43.29
60228;BME280;46091;46.512;6.626;2022-09-09T13:42:41;96781.19;;;24.40;43.12
60228;BME280;46091;46.512;6.626;2022-09-09T13:44:46;96784.19;;;24.38;43.20
60228;BME280;46091;46.512;6.626;2022-09-09T13:47:02;96783.94;;;24.35;43.20
60228;BME280;46091;46.512;6.626;2022-09-09T13:49:20;96777.72;;;24.29;42.99
60228;BME280;46091;46.512;6.626;2022-09-09T13:51:32;96773.72;;;24.27;42.90
60228;BME280;46091;46.512;6.626;2022-09-09T13:53:35;96772.09;;;24.26;43.28
60228;BME280;46091;46.512;6.626;2022-09-09T13:55:38;96772.91;;;24.26;42.84
60228;BME280;46091;46.512;6.626;2022-09-09T13:57:50;96769.13;;;24.27;43.25
60228;BME280;46091;46.512;6.626;2022-09-09T13:59:54;96766.66;;;24.31;43.00
60228;BME280;46091;46.512;6.626;2022-09-09T14:02:08;96768.00;;;24.33;42.92
60228;BME280;46091;46.512;6.626;2022-09-09T14:04:11;96766.91;;;24.34;42.96
60228;BME280;46091;46.512;6.626;2022-09-09T14:06:15;96775.00;;;24.34;43.01
60228;BME280;46091;46.512;6.626;2022-09-09T14:08:24;96767.19;;;24.33;43.07
60228;BME280;46091;46.512;6.626;2022-09-09T14:10:27;96765.59;;;24.32;43.21
60228;BME280;46091;46.512;6.626;2022-09-09T14:12:30;96766.13;;;24.29;43.24
60228;BME280;46091;46.512;6.626;2022-09-09T14:14:33;96765.03;;;24.30;43.11
60228;BME280;46091;46.512;6.626;2022-09-09T14:16:36;96771.28;;;24.30;43.04
60228;BME280;46091;46.512;6.626;2022-09-09T14:18:40;96770.44;;;24.30;42.75
60228;BME280;46091;46.512;6.626;2022-09-09T14:20:43;96769.63;;;24.29;42.75
60228;BME280;46091;46.512;6.626;2022-09-09T14:22:46;96761.28;;;24.31;43.11
60228;BME280;46091;46.512;6.626;2022-09-09T14:24:48;96764.78;;;24.31;43.21
60228;BME280;46091;46.512;6.626;2022-09-09T14:26:51;96763.16;;;24.30;42.93
60228;BME280;46091;46.512;6.626;2022-09-09T14:28:54;96770.19;;;24.31;43.03
60228;BME280;46091;46.512;6.626;2022-09-09T14:30:59;96765.59;;;24.32;43.22
60228;BME280;46091;46.512;6.626;2022-09-09T14:33:03;96771.00;;;24.32;42.80
60228;BME280;46091;46.512;6.626;2022-09-09T14:35:08;96769.63;;;24.34;43.20
60228;BME280;46091;46.512;6.626;2022-09-09T14:37:11;96763.41;;;24.34;42.93
60228;BME280;46091;46.512;6.626;2022-09-09T14:39:13;96758.81;;;24.34;42.76
60228;BME280;46091;46.512;6.626;2022-09-09T14:41:17;96762.06;;;24.36;43.04
60228;BME280;46091;46.512;6.626;2022-09-09T14:43:21;96760.38;;;24.41;42.59
60228;BME280;46091;46.512;6.626;2022-09-09T14:45:24;96774.94;;;24.45;42.92
60228;BME280;46091;46.512;6.626;2022-09-09T14:47:27;96769.53;;;24.45;42.99
60228;BME280;46091;46.512;6.626;2022-09-09T14:49:30;96766.28;;;24.48;42.95
60228;BME280;46091;46.512;6.626;2022-09-09T14:51:34;96756.84;;;24.45;42.44
60228;BME280;46091;46.512;6.626;2022-09-09T14:53:37;96769.03;;;24.43;42.50
60228;BME280;46091;46.512;6.626;2022-09-09T14:55:40;96763.91;;;24.41;42.54
60228;BME280;46091;46.512;6.626;2022-09-09T14:57:43;96766.09;;;24.39;42.21
60228;BME280;46091;46.512;6.626;2022-09-09T14:59:46;96765.56;;;24.37;42.48
60228;BME280;46091;46.512;6.626;2022-09-09T15:01:51;96772.28;;;24.39;42.76
60228;BME280;46091;46.512;6.626;2022-09-09T15:03:56;96776.09;;;24.38;42.54